createdAt,value
2023-05-23T05:48:00.611Z,5.07
2023-05-23T05:50:27.536Z,5.17
2023-05-23T05:52:54.491Z,5.57
2023-05-23T05:55:21.654Z,5.90
2023-05-23T05:57:48.533Z,5.60
2023-05-23T06:00:15.869Z,5.30
2023-05-23T06:02:52.480Z,5.13
2023-05-23T06:05:19.513Z,5.47
2023-05-23T06:07:48.881Z,5.47
2023-05-23T06:10:16.419Z,4.70
2023-05-23T06:12:43.503Z,5.20
2023-05-23T06:15:10.936Z,5.50
2023-05-23T06:17:38.164Z,4.67
2023-05-23T06:20:06.063Z,5.10
2023-05-23T06:22:33.187Z,4.77
2023-05-23T06:25:00.094Z,5.13
2023-05-23T06:27:27.092Z,4.70
2023-05-23T06:29:54.040Z,5.13
2023-05-23T06:32:21.047Z,4.90
2023-05-23T06:34:47.926Z,4.13
2023-05-23T06:37:14.949Z,4.37
2023-05-23T06:39:41.833Z,5.00
2023-05-23T06:42:08.850Z,4.00
2023-05-23T06:44:35.818Z,3.43
2023-05-23T06:47:02.742Z,4.20
2023-05-23T06:49:29.828Z,4.07
2023-05-23T06:51:56.745Z,4.40
2023-05-23T06:54:23.649Z,3.80
2023-05-23T06:56:50.669Z,3.63
2023-05-23T06:59:17.542Z,3.77
2023-05-23T07:01:44.479Z,3.80
2023-05-23T07:04:12.465Z,4.10
2023-05-23T07:06:40.159Z,4.20
2023-05-23T07:09:07.053Z,3.43
2023-05-23T07:11:34.017Z,3.80
2023-05-23T07:14:01.150Z,3.90
2023-05-23T07:16:28.161Z,3.77
2023-05-23T07:18:55.168Z,3.87
2023-05-23T07:21:22.118Z,3.40
2023-05-23T07:23:48.981Z,3.23
2023-05-23T07:26:15.873Z,3.20
2023-05-23T07:28:42.817Z,3.60
2023-05-23T07:31:10.268Z,2.97
2023-05-23T07:33:37.182Z,2.97
2023-05-23T07:36:04.271Z,3.43
2023-05-23T07:38:31.289Z,3.10
2023-05-23T07:41:10.136Z,3.00
2023-05-23T07:43:38.731Z,3.33
2023-05-23T07:46:05.706Z,3.63
2023-05-23T07:48:32.702Z,3.70
2023-05-23T07:50:59.630Z,3.03
2023-05-23T07:53:26.541Z,3.30
2023-05-23T07:55:53.623Z,3.43
2023-05-23T07:58:20.582Z,3.07
2023-05-23T08:00:47.491Z,3.50
2023-05-23T08:03:14.486Z,2.73
2023-05-23T08:05:41.407Z,3.40
2023-05-23T08:08:08.451Z,2.67
2023-05-23T08:10:35.431Z,3.63
2023-05-23T08:13:06.964Z,2.83
2023-05-23T08:15:34.089Z,3.07
2023-05-23T08:18:01.432Z,3.40
2023-05-23T08:20:32.406Z,3.13
2023-05-23T08:23:00.307Z,2.90
2023-05-23T08:25:33.950Z,2.97
2023-05-23T08:28:01.631Z,3.03
2023-05-23T08:30:29.406Z,2.70
2023-05-23T08:32:57.236Z,2.73
2023-05-23T08:35:24.643Z,2.97
2023-05-23T08:37:52.633Z,2.63
2023-05-23T08:40:21.626Z,2.77
2023-05-23T08:42:51.987Z,3.00
2023-05-23T08:45:19.044Z,2.63
2023-05-23T08:47:47.516Z,2.57
2023-05-23T08:50:17.227Z,3.00
2023-05-23T08:52:56.511Z,2.90
2023-05-23T08:55:28.548Z,2.90
2023-05-23T08:57:56.770Z,2.73
2023-05-23T09:00:25.008Z,2.70
2023-05-23T09:02:52.870Z,2.57
2023-05-23T09:05:19.996Z,2.57
2023-05-23T09:07:52.033Z,2.90
2023-05-23T09:10:22.714Z,2.67
2023-05-23T09:12:50.186Z,2.67
2023-05-23T09:15:17.544Z,2.67
2023-05-23T09:17:45.633Z,2.37
2023-05-23T09:20:17.555Z,2.90
2023-05-23T09:22:48.852Z,2.27
2023-05-23T09:25:16.126Z,2.50
2023-05-23T09:27:46.586Z,2.60
2023-05-23T09:30:15.106Z,2.37
2023-05-23T09:32:42.672Z,2.33
2023-05-23T09:35:14.422Z,2.80
2023-05-23T09:37:46.226Z,2.90
2023-05-23T09:40:16.810Z,2.63
2023-05-23T09:42:48.062Z,2.90
2023-05-23T09:45:17.096Z,2.40
2023-05-23T09:47:53.534Z,2.30
2023-05-23T09:50:21.484Z,2.47
2023-05-23T09:52:48.454Z,1.97
2023-05-23T09:55:15.513Z,2.40
2023-05-23T09:57:44.148Z,2.27
2023-05-23T10:00:15.240Z,2.50
2023-05-23T10:03:14.090Z,2.33
2023-05-23T10:05:52.158Z,2.07
2023-05-23T10:08:37.400Z,2.30
2023-05-23T10:11:13.221Z,2.17
2023-05-23T10:13:42.139Z,2.37
2023-05-23T10:16:22.239Z,2.73
2023-05-23T10:19:01.555Z,2.20
2023-05-23T10:21:32.489Z,2.17
2023-05-23T10:24:04.685Z,2.33
2023-05-23T10:26:31.950Z,2.27
2023-05-23T10:28:59.470Z,2.30
2023-05-23T10:31:27.133Z,2.30
2023-05-23T10:34:05.494Z,1.97
2023-05-23T10:36:43.815Z,4.57
2023-05-23T10:39:22.482Z,3.13
2023-05-23T10:41:54.176Z,3.10
2023-05-23T10:44:27.778Z,2.20
2023-05-23T10:47:01.599Z,2.50
2023-05-23T10:49:41.609Z,2.80
2023-05-23T10:52:09.908Z,2.10
2023-05-23T10:54:46.210Z,2.50
2023-05-23T10:57:17.770Z,2.53
2023-05-23T10:59:46.038Z,2.77
2023-05-23T11:02:16.015Z,2.37
2023-05-23T11:04:43.402Z,2.63
2023-05-23T11:07:30.657Z,2.57
2023-05-23T11:10:14.454Z,2.63
2023-05-23T11:12:42.744Z,2.63
2023-05-23T11:15:18.609Z,2.43
2023-05-23T11:17:56.954Z,2.50
2023-05-23T11:20:27.746Z,2.70
2023-05-23T11:22:56.206Z,2.90
2023-05-23T11:25:40.672Z,2.77
2023-05-23T11:28:07.861Z,2.60
2023-05-23T11:30:37.438Z,2.40
2023-05-23T11:33:22.230Z,3.07
2023-05-23T11:35:51.525Z,2.80
2023-05-23T11:38:18.765Z,2.47
2023-05-23T11:40:47.676Z,2.57
2023-05-23T11:43:20.021Z,2.80
2023-05-23T11:45:47.297Z,2.67
2023-05-23T11:48:18.009Z,2.83
2023-05-23T11:50:53.760Z,2.40
2023-05-23T11:53:22.456Z,2.50
2023-05-23T11:55:53.895Z,3.20
2023-05-23T11:58:23.896Z,2.70
2023-05-23T12:00:53.002Z,2.77
2023-05-23T12:03:22.450Z,2.83
2023-05-23T12:05:49.656Z,2.97
2023-05-23T12:08:16.512Z,2.80
2023-05-23T12:10:51.653Z,2.90
2023-05-23T12:13:18.771Z,3.10
2023-05-23T12:15:46.853Z,2.40
2023-05-23T12:18:16.229Z,2.67
2023-05-23T12:20:43.248Z,2.63
2023-05-23T12:23:18.860Z,2.43
2023-05-23T12:25:45.804Z,2.57
2023-05-23T12:28:13.984Z,2.53
2023-05-23T12:30:44.612Z,2.40
2023-05-23T12:33:12.272Z,3.67
2023-05-23T12:35:43.963Z,2.10
2023-05-23T12:38:11.251Z,2.23
2023-05-23T12:40:38.294Z,2.50
2023-05-23T12:43:09.917Z,2.27
2023-05-23T12:45:37.266Z,2.53
2023-05-23T12:48:05.107Z,2.23
2023-05-23T12:50:32.084Z,2.40
2023-05-23T12:52:59.293Z,2.20
2023-05-23T12:55:26.360Z,2.50
2023-05-23T12:57:53.274Z,2.10
2023-05-23T13:00:21.779Z,2.00
2023-05-23T13:02:49.531Z,2.30
2023-05-23T13:05:16.754Z,1.97
2023-05-23T13:07:44.626Z,2.10
2023-05-23T13:10:11.787Z,2.30
2023-05-23T13:12:38.794Z,2.47
2023-05-23T13:15:06.901Z,2.33
2023-05-23T13:17:33.885Z,2.13
2023-05-23T13:20:01.416Z,1.90
2023-05-23T13:22:29.380Z,1.97
2023-05-23T13:24:56.651Z,1.60
2023-05-23T13:27:23.591Z,1.87
2023-05-23T13:29:50.659Z,2.13
2023-05-23T13:32:17.741Z,2.27
2023-05-23T13:34:44.844Z,2.03
2023-05-23T13:37:11.750Z,2.20
2023-05-23T13:39:38.640Z,1.80
2023-05-23T13:42:05.951Z,1.97
2023-05-23T13:44:32.864Z,1.73
2023-05-23T13:47:12.881Z,1.57
2023-05-23T13:49:41.673Z,1.67
2023-05-23T13:52:08.662Z,1.90
2023-05-23T13:54:36.251Z,1.63
2023-05-23T13:57:03.160Z,1.60
2023-05-23T13:59:30.172Z,1.93
2023-05-23T14:01:57.321Z,1.90
2023-05-23T14:04:24.276Z,2.10
2023-05-23T14:06:51.459Z,1.57
2023-05-23T14:09:18.484Z,1.80
2023-05-23T14:11:45.955Z,2.00
2023-05-23T14:14:12.817Z,1.57
2023-05-23T14:16:39.714Z,1.87
2023-05-23T14:19:06.659Z,1.73
2023-05-23T14:21:34.104Z,1.40
2023-05-23T14:24:01.059Z,1.70
2023-05-23T14:26:28.031Z,1.83
2023-05-23T14:28:54.908Z,1.57
2023-05-23T14:31:22.289Z,1.87
2023-05-23T14:33:50.189Z,1.83
2023-05-23T14:36:17.382Z,1.73
2023-05-23T14:38:47.118Z,1.60
2023-05-23T14:41:14.480Z,2.00
2023-05-23T14:43:41.408Z,2.50
2023-05-23T14:46:09.299Z,1.63
2023-05-23T14:48:36.698Z,1.90
2023-05-23T14:51:04.739Z,2.30
2023-05-23T14:53:31.669Z,1.80
2023-05-23T14:55:58.578Z,1.70
2023-05-23T14:58:25.975Z,2.10
2023-05-23T15:00:53.118Z,1.80
2023-05-23T15:03:20.119Z,2.00
2023-05-23T15:05:48.760Z,1.90
2023-05-23T15:08:17.218Z,1.83
2023-05-23T15:10:45.426Z,1.90
2023-05-23T15:13:13.190Z,2.23
2023-05-23T15:15:41.351Z,2.20
2023-05-23T15:18:10.213Z,2.10
2023-05-23T15:20:37.297Z,2.17
2023-05-23T15:23:04.850Z,2.20
2023-05-23T15:25:47.850Z,2.50
2023-05-23T15:28:16.174Z,2.13
2023-05-23T15:30:44.177Z,2.57
2023-05-23T15:33:13.087Z,2.10
2023-05-23T15:35:40.282Z,2.70
2023-05-23T15:38:07.333Z,2.53
2023-05-23T15:40:34.150Z,2.40
2023-05-23T15:43:01.034Z,2.57
2023-05-23T15:45:27.953Z,2.67
2023-05-23T15:47:54.817Z,2.37
2023-05-23T15:50:21.753Z,3.00
2023-05-23T15:52:48.589Z,2.73
2023-05-23T15:55:16.023Z,2.53
2023-05-23T15:57:42.971Z,2.80
2023-05-23T16:00:10.330Z,2.73
2023-05-23T16:02:37.248Z,2.50
2023-05-23T16:05:04.281Z,3.00
2023-05-23T16:07:31.400Z,2.80
2023-05-23T16:09:58.353Z,2.70
2023-05-23T16:12:25.277Z,2.40
2023-05-23T16:14:52.257Z,3.03
2023-05-23T16:17:19.204Z,2.60
2023-05-23T16:19:46.221Z,2.23
2023-05-23T16:22:13.083Z,2.67
2023-05-23T16:24:40.566Z,2.63
2023-05-23T16:27:10.097Z,2.10
2023-05-23T16:29:37.116Z,2.67
2023-05-23T16:32:04.170Z,2.30
2023-05-23T16:34:31.153Z,2.13
2023-05-23T16:36:58.090Z,2.07
2023-05-23T16:39:25.051Z,2.10
2023-05-23T16:41:51.959Z,2.00
2023-05-23T16:44:18.880Z,1.97
2023-05-23T16:46:46.255Z,1.80
2023-05-23T16:49:13.146Z,2.17
2023-05-23T16:51:39.996Z,2.03
2023-05-23T16:54:07.060Z,2.10
2023-05-23T16:56:33.955Z,2.07
2023-05-23T16:59:01.038Z,2.00
2023-05-23T17:01:29.648Z,2.23
2023-05-23T17:03:57.013Z,2.33
2023-05-23T17:06:23.983Z,2.10
2023-05-23T17:08:51.167Z,2.00
2023-05-23T17:11:18.169Z,1.90
2023-05-23T17:13:45.082Z,1.73
2023-05-23T17:16:12.743Z,1.93
2023-05-23T17:18:39.616Z,2.10
2023-05-23T17:21:06.598Z,2.27
2023-05-23T17:23:33.453Z,1.90
2023-05-23T17:26:00.394Z,2.37
2023-05-23T17:28:27.269Z,2.03
2023-05-23T17:30:54.191Z,2.07
2023-05-23T17:33:21.112Z,2.23
2023-05-23T17:35:47.987Z,1.87
2023-05-23T17:38:14.849Z,2.10
2023-05-23T17:40:42.329Z,1.97
2023-05-23T17:43:09.439Z,2.10
2023-05-23T17:45:36.371Z,2.00
2023-05-23T17:48:03.989Z,1.87
2023-05-23T17:50:31.232Z,1.73
2023-05-23T17:52:58.136Z,1.70
2023-05-23T17:55:25.305Z,2.87
2023-05-23T17:57:52.144Z,4.20
2023-05-23T18:00:19.482Z,2.40
2023-05-23T18:02:46.475Z,1.83
2023-05-23T18:05:13.393Z,2.20
2023-05-23T18:07:40.327Z,1.73
2023-05-23T18:10:08.627Z,1.90
2023-05-23T18:12:35.733Z,1.93
2023-05-23T18:15:02.657Z,2.17
2023-05-23T18:17:29.670Z,2.00
2023-05-23T18:19:56.913Z,2.00
2023-05-23T18:22:23.835Z,2.13
2023-05-23T18:24:50.882Z,1.93
2023-05-23T18:27:17.705Z,2.23
2023-05-23T18:29:44.721Z,2.10
2023-05-23T18:32:12.304Z,2.33
2023-05-23T18:34:39.263Z,1.87
2023-05-23T18:37:06.162Z,2.20
2023-05-23T18:39:33.044Z,2.10
2023-05-23T18:42:00.036Z,1.90
2023-05-23T18:44:27.430Z,1.80
2023-05-23T18:46:54.369Z,2.00
2023-05-23T18:49:21.341Z,2.00
2023-05-23T18:51:48.224Z,1.90
2023-05-23T18:54:15.174Z,1.90
2023-05-23T18:56:42.232Z,2.03
2023-05-23T18:59:13.671Z,2.10
2023-05-23T19:01:41.013Z,2.03
2023-05-23T19:04:08.664Z,2.50
2023-05-23T19:06:35.646Z,2.20
2023-05-23T19:09:03.242Z,2.50
2023-05-23T19:11:30.133Z,2.13
2023-05-23T19:13:57.048Z,2.17
2023-05-23T19:16:24.313Z,2.13
2023-05-23T19:18:51.690Z,2.10
2023-05-23T19:21:18.671Z,2.53
2023-05-23T19:23:45.538Z,2.20
2023-05-23T19:26:13.725Z,2.27
2023-05-23T19:28:40.878Z,2.17
2023-05-23T19:31:08.105Z,1.80
2023-05-23T19:33:35.271Z,2.00
2023-05-23T19:36:02.156Z,2.20
2023-05-23T19:38:29.008Z,2.13
2023-05-23T19:40:55.870Z,1.93
2023-05-23T19:43:22.782Z,2.40
2023-05-23T19:45:49.740Z,2.20
2023-05-23T19:48:16.887Z,2.53
2023-05-23T19:50:44.169Z,1.70
2023-05-23T19:53:11.674Z,1.83
2023-05-23T19:55:38.542Z,1.20
2023-05-23T19:58:06.107Z,1.00
